sensor_id;sensor_type;location;lat;lon;timestamp;P1;durP1;ratioP1;P2;durP2;ratioP2
1613;SDS011;800;48.824;9.346;2023-04-16T00:00:30;10.33;;;9.27;;
1613;SDS011;800;48.824;9.346;2023-04-16T00:02:55;9.90;;;9.00;;
1613;SDS011;800;48.824;9.346;2023-04-16T00:05:21;10.63;;;9.63;;
1613;SDS011;800;48.824;9.346;2023-04-16T00:07:47;10.50;;;9.40;;
1613;SDS011;800;48.824;9.346;2023-04-16T00:10:12;8.97;;;8.07;;
1613;SDS011;800;48.824;9.346;2023-04-16T00:12:38;9.90;;;8.90;;
1613;SDS011;800;48.824;9.346;2023-04-16T00:15:03;9.97;;;8.93;;
1613;SDS011;800;48.824;9.346;2023-04-16T00:17:29;11.23;;;10.13;;
1613;SDS011;800;48.824;9.346;2023-04-16T00:19:55;11.60;;;10.50;;
1613;SDS011;800;48.824;9.346;2023-04-16T00:22:20;10.17;;;9.13;;
1613;SDS011;800;48.824;9.346;2023-04-16T00:24:46;9.63;;;8.63;;
1613;SDS011;800;48.824;9.346;2023-04-16T00:27:12;10.00;;;9.00;;
1613;SDS011;800;48.824;9.346;2023-04-16T00:29:37;10.43;;;9.33;;
1613;SDS011;800;48.824;9.346;2023-04-16T00:32:03;9.93;;;8.93;;
1613;SDS011;800;48.824;9.346;2023-04-16T00:34:28;11.00;;;9.90;;
1613;SDS011;800;48.824;9.346;2023-04-16T00:36:54;11.03;;;9.93;;
1613;SDS011;800;48.824;9.346;2023-04-16T00:39:20;11.03;;;10.03;;
1613;SDS011;800;48.824;9.346;2023-04-16T00:41:45;9.60;;;8.70;;
1613;SDS011;800;48.824;9.346;2023-04-16T00:44:11;10.77;;;9.67;;
1613;SDS011;800;48.824;9.346;2023-04-16T00:46:36;11.53;;;10.13;;
1613;SDS011;800;48.824;9.346;2023-04-16T00:49:02;10.60;;;9.60;;
1613;SDS011;800;48.824;9.346;2023-04-16T00:51:28;10.47;;;9.37;;
1613;SDS011;800;48.824;9.346;2023-04-16T00:53:55;10.07;;;8.60;;
1613;SDS011;800;48.824;9.346;2023-04-16T00:56:21;10.30;;;9.20;;
1613;SDS011;800;48.824;9.346;2023-04-16T00:58:48;9.80;;;8.80;;
1613;SDS011;800;48.824;9.346;2023-04-16T01:01:14;10.60;;;9.50;;
1613;SDS011;800;48.824;9.346;2023-04-16T01:03:44;9.90;;;8.90;;
1613;SDS011;800;48.824;9.346;2023-04-16T01:06:11;8.83;;;8.03;;
1613;SDS011;800;48.824;9.346;2023-04-16T01:08:37;9.20;;;8.30;;
1613;SDS011;800;48.824;9.346;2023-04-16T01:11:03;9.80;;;8.90;;
1613;SDS011;800;48.824;9.346;2023-04-16T01:13:29;9.40;;;8.50;;
1613;SDS011;800;48.824;9.346;2023-04-16T01:15:55;10.00;;;9.00;;
1613;SDS011;800;48.824;9.346;2023-04-16T01:18:21;8.97;;;8.10;;
1613;SDS011;800;48.824;9.346;2023-04-16T01:20:47;9.20;;;8.30;;
1613;SDS011;800;48.824;9.346;2023-04-16T01:23:14;9.80;;;8.87;;
1613;SDS011;800;48.824;9.346;2023-04-16T01:25:40;8.37;;;7.57;;
1613;SDS011;800;48.824;9.346;2023-04-16T01:28:05;8.50;;;7.70;;
1613;SDS011;800;48.824;9.346;2023-04-16T01:30:31;8.43;;;7.63;;
1613;SDS011;800;48.824;9.346;2023-04-16T01:32:57;7.90;;;7.10;;
1613;SDS011;800;48.824;9.346;2023-04-16T01:35:23;8.60;;;7.70;;
1613;SDS011;800;48.824;9.346;2023-04-16T01:37:49;9.03;;;8.10;;
1613;SDS011;800;48.824;9.346;2023-04-16T01:40:15;8.27;;;7.47;;
1613;SDS011;800;48.824;9.346;2023-04-16T01:42:42;9.53;;;8.60;;
1613;SDS011;800;48.824;9.346;2023-04-16T01:45:07;8.80;;;8.00;;
1613;SDS011;800;48.824;9.346;2023-04-16T01:47:33;9.23;;;8.33;;
1613;SDS011;800;48.824;9.346;2023-04-16T01:49:59;8.77;;;7.87;;
1613;SDS011;800;48.824;9.346;2023-04-16T01:52:25;7.70;;;7.00;;
1613;SDS011;800;48.824;9.346;2023-04-16T01:54:50;8.50;;;7.70;;
1613;SDS011;800;48.824;9.346;2023-04-16T01:57:16;8.00;;;7.20;;
1613;SDS011;800;48.824;9.346;2023-04-16T01:59:42;7.07;;;6.47;;
1613;SDS011;800;48.824;9.346;2023-04-16T02:02:08;8.10;;;7.30;;
1613;SDS011;800;48.824;9.346;2023-04-16T02:04:39;7.90;;;6.67;;
1613;SDS011;800;48.824;9.346;2023-04-16T02:07:06;7.50;;;6.70;;
1613;SDS011;800;48.824;9.346;2023-04-16T02:09:36;7.37;;;6.73;;
1613;SDS011;800;48.824;9.346;2023-04-16T02:12:03;7.93;;;7.23;;
1613;SDS011;800;48.824;9.346;2023-04-16T02:14:29;8.20;;;7.40;;
1613;SDS011;800;48.824;9.346;2023-04-16T02:16:58;7.83;;;7.13;;
1613;SDS011;800;48.824;9.346;2023-04-16T02:19:24;7.30;;;6.63;;
1613;SDS011;800;48.824;9.346;2023-04-16T02:21:51;7.43;;;6.63;;
1613;SDS011;800;48.824;9.346;2023-04-16T02:24:17;7.57;;;6.87;;
1613;SDS011;800;48.824;9.346;2023-04-16T02:26:46;7.20;;;6.50;;
1613;SDS011;800;48.824;9.346;2023-04-16T02:29:12;7.00;;;6.30;;
1613;SDS011;800;48.824;9.346;2023-04-16T02:31:38;8.20;;;7.40;;
1613;SDS011;800;48.824;9.346;2023-04-16T02:34:03;7.33;;;6.63;;
1613;SDS011;800;48.824;9.346;2023-04-16T02:36:30;8.10;;;7.30;;
1613;SDS011;800;48.824;9.346;2023-04-16T02:38:56;8.03;;;7.33;;
1613;SDS011;800;48.824;9.346;2023-04-16T02:41:22;7.30;;;6.60;;
1613;SDS011;800;48.824;9.346;2023-04-16T02:43:48;9.20;;;7.53;;
1613;SDS011;800;48.824;9.346;2023-04-16T02:46:13;8.20;;;7.50;;
1613;SDS011;800;48.824;9.346;2023-04-16T02:48:39;7.77;;;7.00;;
1613;SDS011;800;48.824;9.346;2023-04-16T02:51:05;11.73;;;7.93;;
1613;SDS011;800;48.824;9.346;2023-04-16T02:53:30;8.40;;;7.57;;
1613;SDS011;800;48.824;9.346;2023-04-16T02:55:56;8.77;;;7.90;;
1613;SDS011;800;48.824;9.346;2023-04-16T02:58:23;8.73;;;7.93;;
1613;SDS011;800;48.824;9.346;2023-04-16T03:00:51;8.73;;;7.83;;
1613;SDS011;800;48.824;9.346;2023-04-16T03:03:17;9.13;;;7.97;;
1613;SDS011;800;48.824;9.346;2023-04-16T03:05:43;8.60;;;7.80;;
1613;SDS011;800;48.824;9.346;2023-04-16T03:08:09;9.17;;;8.13;;
1613;SDS011;800;48.824;9.346;2023-04-16T03:10:35;11.40;;;8.37;;
1613;SDS011;800;48.824;9.346;2023-04-16T03:13:01;10.03;;;9.03;;
1613;SDS011;800;48.824;9.346;2023-04-16T03:15:27;9.10;;;8.13;;
1613;SDS011;800;48.824;9.346;2023-04-16T03:17:52;9.50;;;8.57;;
1613;SDS011;800;48.824;9.346;2023-04-16T03:20:18;9.80;;;8.87;;
1613;SDS011;800;48.824;9.346;2023-04-16T03:22:47;9.10;;;8.20;;
1613;SDS011;800;48.824;9.346;2023-04-16T03:25:14;8.93;;;8.03;;
1613;SDS011;800;48.824;9.346;2023-04-16T03:27:39;9.40;;;8.43;;
1613;SDS011;800;48.824;9.346;2023-04-16T03:30:11;10.47;;;9.30;;
1613;SDS011;800;48.824;9.346;2023-04-16T03:32:37;9.37;;;8.20;;
1613;SDS011;800;48.824;9.346;2023-04-16T03:35:04;8.87;;;8.07;;
1613;SDS011;800;48.824;9.346;2023-04-16T03:37:30;10.63;;;8.90;;
1613;SDS011;800;48.824;9.346;2023-04-16T03:39:56;9.20;;;7.93;;
1613;SDS011;800;48.824;9.346;2023-04-16T03:42:22;8.70;;;7.63;;
1613;SDS011;800;48.824;9.346;2023-04-16T03:44:47;9.03;;;8.17;;
1613;SDS011;800;48.824;9.346;2023-04-16T03:47:13;8.77;;;7.97;;
1613;SDS011;800;48.824;9.346;2023-04-16T03:49:38;9.37;;;8.47;;
1613;SDS011;800;48.824;9.346;2023-04-16T03:52:04;8.87;;;8.03;;
1613;SDS011;800;48.824;9.346;2023-04-16T03:54:30;8.80;;;7.60;;
1613;SDS011;800;48.824;9.346;2023-04-16T03:56:55;9.50;;;8.20;;
1613;SDS011;800;48.824;9.346;2023-04-16T03:59:21;8.43;;;7.27;;
1613;SDS011;800;48.824;9.346;2023-04-16T04:01:47;8.40;;;7.47;;
1613;SDS011;800;48.824;9.346;2023-04-16T04:04:12;9.10;;;8.20;;
1613;SDS011;800;48.824;9.346;2023-04-16T04:06:39;8.83;;;7.90;;
1613;SDS011;800;48.824;9.346;2023-04-16T04:09:05;9.13;;;8.23;;
1613;SDS011;800;48.824;9.346;2023-04-16T04:11:31;8.73;;;7.87;;
1613;SDS011;800;48.824;9.346;2023-04-16T04:13:56;9.90;;;7.97;;
1613;SDS011;800;48.824;9.346;2023-04-16T04:16:22;9.40;;;7.97;;
1613;SDS011;800;48.824;9.346;2023-04-16T04:18:47;8.80;;;6.80;;
1613;SDS011;800;48.824;9.346;2023-04-16T04:21:13;9.13;;;8.17;;
1613;SDS011;800;48.824;9.346;2023-04-16T04:23:39;10.00;;;8.93;;
1613;SDS011;800;48.824;9.346;2023-04-16T04:26:06;10.97;;;9.33;;
1613;SDS011;800;48.824;9.346;2023-04-16T04:28:32;11.07;;;9.97;;
1613;SDS011;800;48.824;9.346;2023-04-16T04:30:59;9.63;;;8.63;;
1613;SDS011;800;48.824;9.346;2023-04-16T04:33:25;10.80;;;9.67;;
1613;SDS011;800;48.824;9.346;2023-04-16T04:35:51;9.87;;;8.90;;
1613;SDS011;800;48.824;9.346;2023-04-16T04:38:17;9.47;;;8.20;;
1613;SDS011;800;48.824;9.346;2023-04-16T04:40:45;11.00;;;9.90;;
1613;SDS011;800;48.824;9.346;2023-04-16T04:43:11;11.63;;;9.73;;
1613;SDS011;800;48.824;9.346;2023-04-16T04:45:37;9.70;;;8.70;;
1613;SDS011;800;48.824;9.346;2023-04-16T04:48:03;10.07;;;9.10;;
1613;SDS011;800;48.824;9.346;2023-04-16T04:50:28;10.60;;;9.37;;
1613;SDS011;800;48.824;9.346;2023-04-16T04:52:54;11.43;;;9.93;;
1613;SDS011;800;48.824;9.346;2023-04-16T04:55:20;11.63;;;9.87;;
1613;SDS011;800;48.824;9.346;2023-04-16T04:57:45;10.50;;;9.03;;
1613;SDS011;800;48.824;9.346;2023-04-16T05:00:11;10.47;;;9.47;;
1613;SDS011;800;48.824;9.346;2023-04-16T05:02:37;11.80;;;9.67;;
1613;SDS011;800;48.824;9.346;2023-04-16T05:05:03;12.13;;;10.97;;
1613;SDS011;800;48.824;9.346;2023-04-16T05:07:31;10.97;;;9.33;;
1613;SDS011;800;48.824;9.346;2023-04-16T05:09:56;11.83;;;9.47;;
1613;SDS011;800;48.824;9.346;2023-04-16T05:12:22;12.53;;;9.97;;
1613;SDS011;800;48.824;9.346;2023-04-16T05:14:48;11.87;;;9.90;;
1613;SDS011;800;48.824;9.346;2023-04-16T05:17:13;10.80;;;9.70;;
1613;SDS011;800;48.824;9.346;2023-04-16T05:19:39;10.37;;;8.97;;
1613;SDS011;800;48.824;9.346;2023-04-16T05:22:04;12.40;;;10.13;;
1613;SDS011;800;48.824;9.346;2023-04-16T05:24:30;13.43;;;10.17;;
1613;SDS011;800;48.824;9.346;2023-04-16T05:26:56;11.17;;;9.80;;
1613;SDS011;800;48.824;9.346;2023-04-16T05:29:21;12.93;;;10.43;;
1613;SDS011;800;48.824;9.346;2023-04-16T05:31:47;12.43;;;10.53;;
1613;SDS011;800;48.824;9.346;2023-04-16T05:34:13;13.70;;;11.17;;
1613;SDS011;800;48.824;9.346;2023-04-16T05:36:38;14.17;;;10.47;;
1613;SDS011;800;48.824;9.346;2023-04-16T05:39:04;14.03;;;11.47;;
1613;SDS011;800;48.824;9.346;2023-04-16T05:41:30;13.00;;;10.80;;
1613;SDS011;800;48.824;9.346;2023-04-16T05:43:55;12.70;;;11.30;;
1613;SDS011;800;48.824;9.346;2023-04-16T05:46:21;16.23;;;13.20;;
1613;SDS011;800;48.824;9.346;2023-04-16T05:48:46;19.47;;;13.00;;
1613;SDS011;800;48.824;9.346;2023-04-16T05:51:12;15.67;;;11.60;;
1613;SDS011;800;48.824;9.346;2023-04-16T05:53:37;14.80;;;12.77;;
1613;SDS011;800;48.824;9.346;2023-04-16T05:56:03;14.27;;;12.37;;
1613;SDS011;800;48.824;9.346;2023-04-16T05:58:29;16.57;;;12.97;;
1613;SDS011;800;48.824;9.346;2023-04-16T06:00:54;20.93;;;14.13;;
1613;SDS011;800;48.824;9.346;2023-04-16T06:03:20;16.53;;;13.23;;
1613;SDS011;800;48.824;9.346;2023-04-16T06:05:46;15.00;;;12.57;;
1613;SDS011;800;48.824;9.346;2023-04-16T06:08:11;16.57;;;13.90;;
1613;SDS011;800;48.824;9.346;2023-04-16T06:10:37;17.27;;;13.13;;
1613;SDS011;800;48.824;9.346;2023-04-16T06:13:03;18.83;;;14.50;;
1613;SDS011;800;48.824;9.346;2023-04-16T06:15:28;21.57;;;16.07;;
1613;SDS011;800;48.824;9.346;2023-04-16T06:17:54;19.47;;;15.40;;
1613;SDS011;800;48.824;9.346;2023-04-16T06:20:20;19.70;;;15.67;;
1613;SDS011;800;48.824;9.346;2023-04-16T06:22:45;20.70;;;16.43;;
1613;SDS011;800;48.824;9.346;2023-04-16T06:25:11;19.63;;;16.50;;
1613;SDS011;800;48.824;9.346;2023-04-16T06:27:36;21.50;;;15.97;;
1613;SDS011;800;48.824;9.346;2023-04-16T06:30:02;22.47;;;17.10;;
1613;SDS011;800;48.824;9.346;2023-04-16T06:32:28;22.40;;;17.20;;
1613;SDS011;800;48.824;9.346;2023-04-16T06:34:54;21.50;;;16.33;;
1613;SDS011;800;48.824;9.346;2023-04-16T06:37:20;20.03;;;16.47;;
1613;SDS011;800;48.824;9.346;2023-04-16T06:39:46;22.83;;;18.83;;
1613;SDS011;800;48.824;9.346;2023-04-16T06:42:11;20.10;;;15.30;;
1613;SDS011;800;48.824;9.346;2023-04-16T06:44:37;22.07;;;17.60;;
1613;SDS011;800;48.824;9.346;2023-04-16T06:47:02;18.73;;;16.23;;
1613;SDS011;800;48.824;9.346;2023-04-16T06:49:28;21.53;;;17.30;;
1613;SDS011;800;48.824;9.346;2023-04-16T06:51:53;21.10;;;17.30;;
1613;SDS011;800;48.824;9.346;2023-04-16T06:54:19;21.50;;;16.80;;
1613;SDS011;800;48.824;9.346;2023-04-16T06:56:45;21.73;;;15.97;;
1613;SDS011;800;48.824;9.346;2023-04-16T06:59:10;21.97;;;17.57;;
1613;SDS011;800;48.824;9.346;2023-04-16T07:01:36;21.77;;;17.30;;
1613;SDS011;800;48.824;9.346;2023-04-16T07:04:01;21.70;;;15.90;;
1613;SDS011;800;48.824;9.346;2023-04-16T07:06:28;19.07;;;15.97;;
1613;SDS011;800;48.824;9.346;2023-04-16T07:08:53;17.00;;;14.40;;
1613;SDS011;800;48.824;9.346;2023-04-16T07:11:19;20.83;;;17.30;;
1613;SDS011;800;48.824;9.346;2023-04-16T07:13:45;19.47;;;16.50;;
1613;SDS011;800;48.824;9.346;2023-04-16T07:16:10;19.70;;;15.87;;
1613;SDS011;800;48.824;9.346;2023-04-16T07:18:36;21.97;;;16.27;;
1613;SDS011;800;48.824;9.346;2023-04-16T07:21:01;17.87;;;14.63;;
1613;SDS011;800;48.824;9.346;2023-04-16T07:23:28;18.80;;;15.50;;
1613;SDS011;800;48.824;9.346;2023-04-16T07:25:54;19.50;;;17.40;;
1613;SDS011;800;48.824;9.346;2023-04-16T07:28:20;20.00;;;16.40;;
1613;SDS011;800;48.824;9.346;2023-04-16T07:30:46;20.10;;;15.33;;
1613;SDS011;800;48.824;9.346;2023-04-16T07:33:11;21.53;;;16.47;;
1613;SDS011;800;48.824;9.346;2023-04-16T07:35:37;20.07;;;15.13;;
1613;SDS011;800;48.824;9.346;2023-04-16T07:38:03;23.23;;;16.97;;
1613;SDS011;800;48.824;9.346;2023-04-16T07:40:28;20.47;;;16.60;;
1613;SDS011;800;48.824;9.346;2023-04-16T07:42:54;20.30;;;15.57;;
1613;SDS011;800;48.824;9.346;2023-04-16T07:45:20;22.43;;;16.90;;
1613;SDS011;800;48.824;9.346;2023-04-16T07:47:45;20.93;;;15.90;;
1613;SDS011;800;48.824;9.346;2023-04-16T07:50:11;20.30;;;15.53;;
1613;SDS011;800;48.824;9.346;2023-04-16T07:52:37;19.33;;;16.20;;
1613;SDS011;800;48.824;9.346;2023-04-16T07:55:05;21.03;;;16.00;;
1613;SDS011;800;48.824;9.346;2023-04-16T07:57:34;18.93;;;15.13;;
1613;SDS011;800;48.824;9.346;2023-04-16T07:59:59;23.23;;;16.00;;
1613;SDS011;800;48.824;9.346;2023-04-16T08:02:31;19.10;;;16.00;;
1613;SDS011;800;48.824;9.346;2023-04-16T08:04:57;21.33;;;17.93;;
1613;SDS011;800;48.824;9.346;2023-04-16T08:07:23;17.33;;;15.17;;
1613;SDS011;800;48.824;9.346;2023-04-16T08:09:51;19.57;;;15.70;;
1613;SDS011;800;48.824;9.346;2023-04-16T08:12:18;19.50;;;15.50;;
1613;SDS011;800;48.824;9.346;2023-04-16T08:14:45;20.27;;;14.80;;
1613;SDS011;800;48.824;9.346;2023-04-16T08:17:11;17.13;;;14.07;;
1613;SDS011;800;48.824;9.346;2023-04-16T08:19:37;18.43;;;14.57;;
1613;SDS011;800;48.824;9.346;2023-04-16T08:22:03;17.70;;;14.70;;
1613;SDS011;800;48.824;9.346;2023-04-16T08:24:28;19.53;;;15.33;;
1613;SDS011;800;48.824;9.346;2023-04-16T08:26:54;19.77;;;15.67;;
1613;SDS011;800;48.824;9.346;2023-04-16T08:29:20;18.87;;;15.10;;
1613;SDS011;800;48.824;9.346;2023-04-16T08:31:45;21.20;;;14.80;;
1613;SDS011;800;48.824;9.346;2023-04-16T08:34:12;21.37;;;15.17;;
1613;SDS011;800;48.824;9.346;2023-04-16T08:36:38;20.63;;;15.57;;
1613;SDS011;800;48.824;9.346;2023-04-16T08:39:04;17.53;;;14.70;;
1613;SDS011;800;48.824;9.346;2023-04-16T08:41:31;18.70;;;14.53;;
1613;SDS011;800;48.824;9.346;2023-04-16T08:43:59;19.47;;;15.63;;
1613;SDS011;800;48.824;9.346;2023-04-16T08:46:28;16.73;;;13.70;;
1613;SDS011;800;48.824;9.346;2023-04-16T08:48:55;19.10;;;15.07;;
1613;SDS011;800;48.824;9.346;2023-04-16T08:51:25;16.27;;;13.63;;
1613;SDS011;800;48.824;9.346;2023-04-16T08:54:04;16.30;;;14.43;;
1613;SDS011;800;48.824;9.346;2023-04-16T08:56:36;14.83;;;12.90;;
1613;SDS011;800;48.824;9.346;2023-04-16T08:59:02;17.10;;;13.60;;
1613;SDS011;800;48.824;9.346;2023-04-16T09:01:31;15.90;;;13.13;;
1613;SDS011;800;48.824;9.346;2023-04-16T09:03:57;17.13;;;13.67;;
1613;SDS011;800;48.824;9.346;2023-04-16T09:06:26;15.37;;;13.30;;
1613;SDS011;800;48.824;9.346;2023-04-16T09:08:52;16.17;;;13.03;;
1613;SDS011;800;48.824;9.346;2023-04-16T09:11:18;15.00;;;13.40;;
1613;SDS011;800;48.824;9.346;2023-04-16T09:13:45;15.47;;;12.33;;
1613;SDS011;800;48.824;9.346;2023-04-16T09:16:11;16.87;;;12.90;;
1613;SDS011;800;48.824;9.346;2023-04-16T09:18:38;13.53;;;12.13;;
1613;SDS011;800;48.824;9.346;2023-04-16T09:21:04;14.40;;;12.63;;
1613;SDS011;800;48.824;9.346;2023-04-16T09:23:31;16.10;;;13.00;;
1613;SDS011;800;48.824;9.346;2023-04-16T09:25:58;14.30;;;12.27;;
1613;SDS011;800;48.824;9.346;2023-04-16T09:28:40;16.57;;;12.70;;
1613;SDS011;800;48.824;9.346;2023-04-16T09:31:17;14.23;;;11.37;;
1613;SDS011;800;48.824;9.346;2023-04-16T09:36:26;14.23;;;11.77;;
1613;SDS011;800;48.824;9.346;2023-04-16T09:38:52;14.53;;;11.33;;
1613;SDS011;800;48.824;9.346;2023-04-16T09:41:18;19.30;;;11.80;;
1613;SDS011;800;48.824;9.346;2023-04-16T09:43:53;16.43;;;13.07;;
1613;SDS011;800;48.824;9.346;2023-04-16T09:49:08;16.80;;;12.77;;
1613;SDS011;800;48.824;9.346;2023-04-16T09:51:41;15.57;;;12.70;;
1613;SDS011;800;48.824;9.346;2023-04-16T09:54:08;15.90;;;12.30;;
1613;SDS011;800;48.824;9.346;2023-04-16T09:56:43;16.17;;;13.33;;
1613;SDS011;800;48.824;9.346;2023-04-16T09:59:22;20.10;;;13.17;;
1613;SDS011;800;48.824;9.346;2023-04-16T10:01:48;16.27;;;12.40;;
1613;SDS011;800;48.824;9.346;2023-04-16T10:04:14;17.47;;;14.33;;
1613;SDS011;800;48.824;9.346;2023-04-16T10:06:40;16.80;;;13.40;;
1613;SDS011;800;48.824;9.346;2023-04-16T10:09:07;14.73;;;13.00;;
1613;SDS011;800;48.824;9.346;2023-04-16T10:11:33;14.93;;;13.20;;
1613;SDS011;800;48.824;9.346;2023-04-16T10:13:59;16.87;;;13.60;;
1613;SDS011;800;48.824;9.346;2023-04-16T10:16:25;15.73;;;13.30;;
1613;SDS011;800;48.824;9.346;2023-04-16T10:18:51;15.77;;;12.70;;
1613;SDS011;800;48.824;9.346;2023-04-16T10:21:18;15.20;;;12.87;;
1613;SDS011;800;48.824;9.346;2023-04-16T10:23:45;14.87;;;12.97;;
1613;SDS011;800;48.824;9.346;2023-04-16T10:26:13;15.90;;;12.87;;
1613;SDS011;800;48.824;9.346;2023-04-16T10:28:39;14.67;;;12.60;;
1613;SDS011;800;48.824;9.346;2023-04-16T10:31:06;17.63;;;13.60;;
1613;SDS011;800;48.824;9.346;2023-04-16T10:33:38;15.67;;;11.90;;
1613;SDS011;800;48.824;9.346;2023-04-16T10:36:14;15.23;;;12.40;;
1613;SDS011;800;48.824;9.346;2023-04-16T10:38:45;14.90;;;12.10;;
1613;SDS011;800;48.824;9.346;2023-04-16T10:41:13;14.33;;;11.30;;
1613;SDS011;800;48.824;9.346;2023-04-16T10:43:41;17.07;;;13.27;;
1613;SDS011;800;48.824;9.346;2023-04-16T10:48:47;16.37;;;12.60;;
1613;SDS011;800;48.824;9.346;2023-04-16T10:56:38;16.80;;;13.47;;
1613;SDS011;800;48.824;9.346;2023-04-16T10:59:07;17.70;;;13.10;;
1613;SDS011;800;48.824;9.346;2023-04-16T11:01:41;14.67;;;12.30;;
1613;SDS011;800;48.824;9.346;2023-04-16T11:12:25;14.90;;;11.20;;
1613;SDS011;800;48.824;9.346;2023-04-16T11:15:00;18.93;;;11.83;;
1613;SDS011;800;48.824;9.346;2023-04-16T11:17:36;15.10;;;11.10;;
1613;SDS011;800;48.824;9.346;2023-04-16T11:20:06;13.10;;;10.97;;
1613;SDS011;800;48.824;9.346;2023-04-16T11:22:36;15.43;;;10.47;;
1613;SDS011;800;48.824;9.346;2023-04-16T11:25:02;13.57;;;11.30;;
1613;SDS011;800;48.824;9.346;2023-04-16T11:27:31;11.30;;;10.00;;
1613;SDS011;800;48.824;9.346;2023-04-16T11:30:00;12.37;;;9.23;;
1613;SDS011;800;48.824;9.346;2023-04-16T11:32:31;11.67;;;8.83;;
1613;SDS011;800;48.824;9.346;2023-04-16T11:34:57;11.30;;;9.07;;
1613;SDS011;800;48.824;9.346;2023-04-16T11:37:34;11.37;;;9.70;;
1613;SDS011;800;48.824;9.346;2023-04-16T11:40:02;12.40;;;9.23;;
1613;SDS011;800;48.824;9.346;2023-04-16T11:42:30;11.77;;;9.30;;
1613;SDS011;800;48.824;9.346;2023-04-16T11:44:57;12.10;;;8.63;;
1613;SDS011;800;48.824;9.346;2023-04-16T11:47:28;9.30;;;8.10;;
1613;SDS011;800;48.824;9.346;2023-04-16T11:49:55;8.80;;;7.00;;
1613;SDS011;800;48.824;9.346;2023-04-16T11:52:27;9.33;;;7.97;;
1613;SDS011;800;48.824;9.346;2023-04-16T11:54:57;9.83;;;8.50;;
1613;SDS011;800;48.824;9.346;2023-04-16T11:57:32;13.13;;;8.43;;
1613;SDS011;800;48.824;9.346;2023-04-16T11:59:58;8.43;;;7.43;;
1613;SDS011;800;48.824;9.346;2023-04-16T12:05:26;11.00;;;6.77;;
1613;SDS011;800;48.824;9.346;2023-04-16T12:07:55;7.17;;;6.47;;
1613;SDS011;800;48.824;9.346;2023-04-16T12:10:25;8.87;;;7.00;;
1613;SDS011;800;48.824;9.346;2023-04-16T12:12:51;9.80;;;7.53;;
1613;SDS011;800;48.824;9.346;2023-04-16T12:15:17;7.20;;;6.50;;
1613;SDS011;800;48.824;9.346;2023-04-16T12:17:42;8.30;;;7.43;;
1613;SDS011;800;48.824;9.346;2023-04-16T12:20:09;9.53;;;7.63;;
1613;SDS011;800;48.824;9.346;2023-04-16T12:22:37;7.03;;;6.33;;
1613;SDS011;800;48.824;9.346;2023-04-16T12:25:11;7.20;;;6.30;;
1613;SDS011;800;48.824;9.346;2023-04-16T12:27:42;11.60;;;7.40;;
1613;SDS011;800;48.824;9.346;2023-04-16T12:30:10;8.03;;;6.90;;
1613;SDS011;800;48.824;9.346;2023-04-16T12:32:37;7.40;;;6.00;;
1613;SDS011;800;48.824;9.346;2023-04-16T12:35:02;9.33;;;6.37;;
1613;SDS011;800;48.824;9.346;2023-04-16T12:37:29;7.00;;;6.27;;
1613;SDS011;800;48.824;9.346;2023-04-16T12:39:54;6.90;;;5.90;;
1613;SDS011;800;48.824;9.346;2023-04-16T12:42:20;7.17;;;6.13;;
1613;SDS011;800;48.824;9.346;2023-04-16T12:44:46;6.77;;;6.17;;
1613;SDS011;800;48.824;9.346;2023-04-16T12:47:11;6.63;;;5.93;;
1613;SDS011;800;48.824;9.346;2023-04-16T12:49:37;6.37;;;5.30;;
1613;SDS011;800;48.824;9.346;2023-04-16T12:52:02;7.17;;;6.07;;
1613;SDS011;800;48.824;9.346;2023-04-16T12:54:28;8.03;;;6.40;;
1613;SDS011;800;48.824;9.346;2023-04-16T12:56:55;7.07;;;5.37;;
1613;SDS011;800;48.824;9.346;2023-04-16T12:59:21;6.47;;;5.87;;
1613;SDS011;800;48.824;9.346;2023-04-16T13:01:47;7.63;;;6.17;;
1613;SDS011;800;48.824;9.346;2023-04-16T13:04:13;6.63;;;5.97;;
1613;SDS011;800;48.824;9.346;2023-04-16T13:06:38;5.70;;;5.10;;
1613;SDS011;800;48.824;9.346;2023-04-16T13:09:04;6.43;;;5.73;;
1613;SDS011;800;48.824;9.346;2023-04-16T13:11:30;6.43;;;5.60;;
1613;SDS011;800;48.824;9.346;2023-04-16T13:13:56;7.47;;;4.70;;
1613;SDS011;800;48.824;9.346;2023-04-16T13:16:22;7.50;;;4.63;;
1613;SDS011;800;48.824;9.346;2023-04-16T13:18:48;6.60;;;5.93;;
1613;SDS011;800;48.824;9.346;2023-04-16T13:21:13;7.00;;;5.80;;
1613;SDS011;800;48.824;9.346;2023-04-16T13:23:39;6.30;;;5.33;;
1613;SDS011;800;48.824;9.346;2023-04-16T13:26:05;5.77;;;5.23;;
1613;SDS011;800;48.824;9.346;2023-04-16T13:28:30;6.33;;;5.70;;
1613;SDS011;800;48.824;9.346;2023-04-16T13:30:56;6.67;;;5.97;;
1613;SDS011;800;48.824;9.346;2023-04-16T13:33:21;5.93;;;5.33;;
1613;SDS011;800;48.824;9.346;2023-04-16T13:35:48;6.73;;;6.13;;
1613;SDS011;800;48.824;9.346;2023-04-16T13:38:14;7.00;;;5.73;;
1613;SDS011;800;48.824;9.346;2023-04-16T13:40:40;6.50;;;5.90;;
1613;SDS011;800;48.824;9.346;2023-04-16T13:43:06;6.90;;;6.00;;
1613;SDS011;800;48.824;9.346;2023-04-16T13:45:31;7.63;;;6.40;;
1613;SDS011;800;48.824;9.346;2023-04-16T13:47:57;8.73;;;6.33;;
1613;SDS011;800;48.824;9.346;2023-04-16T13:50:23;7.40;;;6.10;;
1613;SDS011;800;48.824;9.346;2023-04-16T13:52:49;8.30;;;7.07;;
1613;SDS011;800;48.824;9.346;2023-04-16T13:55:15;7.33;;;6.60;;
1613;SDS011;800;48.824;9.346;2023-04-16T13:57:43;7.50;;;6.80;;
1613;SDS011;800;48.824;9.346;2023-04-16T14:00:10;6.93;;;6.23;;
1613;SDS011;800;48.824;9.346;2023-04-16T14:02:36;8.00;;;6.57;;
1613;SDS011;800;48.824;9.346;2023-04-16T14:05:02;7.43;;;6.37;;
1613;SDS011;800;48.824;9.346;2023-04-16T14:07:29;8.77;;;7.87;;
1613;SDS011;800;48.824;9.346;2023-04-16T14:09:56;7.63;;;6.80;;
1613;SDS011;800;48.824;9.346;2023-04-16T14:12:22;7.77;;;6.97;;
1613;SDS011;800;48.824;9.346;2023-04-16T14:14:47;10.73;;;8.10;;
1613;SDS011;800;48.824;9.346;2023-04-16T14:17:13;9.20;;;8.30;;
1613;SDS011;800;48.824;9.346;2023-04-16T14:19:38;10.70;;;8.00;;
1613;SDS011;800;48.824;9.346;2023-04-16T14:22:04;9.30;;;7.93;;
1613;SDS011;800;48.824;9.346;2023-04-16T14:24:30;9.33;;;7.90;;
1613;SDS011;800;48.824;9.346;2023-04-16T14:26:55;9.70;;;8.40;;
1613;SDS011;800;48.824;9.346;2023-04-16T14:29:21;9.50;;;8.47;;
1613;SDS011;800;48.824;9.346;2023-04-16T14:31:46;10.40;;;8.27;;
1613;SDS011;800;48.824;9.346;2023-04-16T14:34:12;10.20;;;7.97;;
1613;SDS011;800;48.824;9.346;2023-04-16T14:36:37;10.90;;;8.67;;
1613;SDS011;800;48.824;9.346;2023-04-16T14:39:03;9.37;;;8.47;;
1613;SDS011;800;48.824;9.346;2023-04-16T14:41:29;10.20;;;8.70;;
1613;SDS011;800;48.824;9.346;2023-04-16T14:43:54;9.60;;;8.60;;
1613;SDS011;800;48.824;9.346;2023-04-16T14:46:20;10.33;;;9.30;;
1613;SDS011;800;48.824;9.346;2023-04-16T14:48:46;10.70;;;8.47;;
1613;SDS011;800;48.824;9.346;2023-04-16T14:51:11;10.30;;;8.50;;
1613;SDS011;800;48.824;9.346;2023-04-16T14:53:37;14.10;;;9.00;;
1613;SDS011;800;48.824;9.346;2023-04-16T14:56:03;14.40;;;11.10;;
1613;SDS011;800;48.824;9.346;2023-04-16T14:58:29;10.33;;;9.23;;
1613;SDS011;800;48.824;9.346;2023-04-16T15:00:56;10.37;;;9.27;;
1613;SDS011;800;48.824;9.346;2023-04-16T15:03:22;11.97;;;10.07;;
1613;SDS011;800;48.824;9.346;2023-04-16T15:05:48;10.83;;;9.70;;
1613;SDS011;800;48.824;9.346;2023-04-16T15:08:19;11.07;;;9.87;;
1613;SDS011;800;48.824;9.346;2023-04-16T15:10:48;13.23;;;10.33;;
1613;SDS011;800;48.824;9.346;2023-04-16T15:13:14;13.63;;;11.10;;
1613;SDS011;800;48.824;9.346;2023-04-16T15:15:39;11.90;;;10.23;;
1613;SDS011;800;48.824;9.346;2023-04-16T15:18:05;29.77;;;24.53;;
1613;SDS011;800;48.824;9.346;2023-04-16T15:20:31;22.77;;;20.60;;
1613;SDS011;800;48.824;9.346;2023-04-16T15:22:56;12.80;;;11.37;;
1613;SDS011;800;48.824;9.346;2023-04-16T15:25:22;14.53;;;11.07;;
1613;SDS011;800;48.824;9.346;2023-04-16T15:27:49;13.77;;;10.70;;
1613;SDS011;800;48.824;9.346;2023-04-16T15:30:15;15.43;;;11.10;;
1613;SDS011;800;48.824;9.346;2023-04-16T15:32:44;16.60;;;11.90;;
1613;SDS011;800;48.824;9.346;2023-04-16T15:35:10;13.63;;;11.30;;